Time;durP1;ratioP1;P1;durP2;ratioP2;P2;SDS_P1;SDS_P2;PMS_P1;PMS_P2;Temp;Humidity;BMP_temperature;BMP_pressure;BME280_temperature;BME280_humidity;BME280_pressure;Samples;Min_cycle;Max_cycle;Signal;HPM_P1;HPM_P2
2022/08/13 00:01:04;;;;;;;5.05;2.70;;;;;;;;;;4973510;28;20034;-76
2022/08/13 00:03:30;;;;;;;3.15;2.55;;;;;;;;;;4980808;28;20026;-77
2022/08/13 00:05:56;;;;;;;2.97;2.67;;;;;;;;;;4971538;28;20058;-78
2022/08/13 00:08:23;;;;;;;4.03;2.88;;;;;;;;;;4979121;28;20040;-78
2022/08/13 00:10:50;;;;;;;6.22;2.75;;;;;;;;;;4975888;28;20034;-77
2022/08/13 00:13:16;;;;;;;3.58;2.70;;;;;;;;;;4973585;28;20058;-77
2022/08/13 00:15:43;;;;;;;4.88;2.80;;;;;;;;;;4974917;28;20030;-77
2022/08/13 00:18:18;;;;;;;3.72;2.75;;;;;;;;;;4975192;28;20033;-78
2022/08/13 00:20:44;;;;;;;;;;;;;;;;;;4984204;28;20023;-78
2022/08/13 00:23:14;;;;;;;4.55;2.50;;;;;;;;;;4990188;28;19914;-79
2022/08/13 00:25:40;;;;;;;5.07;3.00;;;;;;;;;;4975052;28;20028;-77
2022/08/13 00:28:06;;;;;;;2.92;2.63;;;;;;;;;;4975440;28;20125;-78
2022/08/13 00:30:33;;;;;;;2.92;2.38;;;;;;;;;;4970477;28;20030;-77
2022/08/13 00:33:12;;;;;;;5.75;3.25;;;;;;;;;;4972824;28;20022;-76
2022/08/13 00:35:41;;;;;;;2.70;2.40;;;;;;;;;;4970338;28;20066;-78
2022/08/13 00:38:12;;;;;;;2.80;2.40;;;;;;;;;;4974377;28;20027;-77
2022/08/13 00:40:41;;;;;;;5.32;2.60;;;;;;;;;;4970315;28;20042;-77
2022/08/13 00:43:07;;;;;;;5.07;2.97;;;;;;;;;;4975050;28;20026;-77
2022/08/13 00:45:33;;;;;;;6.20;2.75;;;;;;;;;;4968280;28;20019;-77
2022/08/13 00:50:45;;;;;;;2.80;2.42;;;;;;;;;;4972053;28;20040;-77
2022/08/13 00:53:17;;;;;;;4.63;3.00;;;;;;;;;;4970512;28;20027;-78
2022/08/13 00:55:45;;;;;;;2.83;2.40;;;;;;;;;;4972584;28;20027;-77
2022/08/13 00:58:15;;;;;;;3.70;2.70;;;;;;;;;;4967853;28;20057;-77
2022/08/13 01:00:42;;;;;;;3.95;2.80;;;;;;;;;;4973881;28;20575;-77
2022/08/13 01:03:08;;;;;;;3.55;2.60;;;;;;;;;;4972815;28;20473;-78
2022/08/13 01:05:35;;;;;;;5.78;2.83;;;;;;;;;;4974402;28;20038;-78
2022/08/13 01:08:01;;;;;;;3.28;2.67;;;;;;;;;;4972939;28;20509;-77
2022/08/13 01:10:28;;;;;;;3.65;2.50;;;;;;;;;;4971751;28;20030;-77
2022/08/13 01:12:54;;;;;;;4.05;3.20;;;;;;;;;;4976328;28;20457;-78
2022/08/13 01:15:23;;;;;;;4.43;2.55;;;;;;;;;;4969526;28;20027;-77
2022/08/13 01:17:53;;;;;;;3.63;2.88;;;;;;;;;;4971106;28;20373;-77
2022/08/13 01:20:22;;;;;;;5.47;2.83;;;;;;;;;;4971767;28;20027;-78
2022/08/13 01:22:52;;;;;;;6.10;2.67;;;;;;;;;;4965151;28;20054;-77
2022/08/13 01:25:25;;;;;;;5.40;2.75;;;;;;;;;;4973646;28;20031;-77
2022/08/13 01:27:52;;;;;;;5.30;3.38;;;;;;;;;;4971746;28;20022;-78
2022/08/13 01:30:19;;;;;;;5.35;2.70;;;;;;;;;;4974840;28;20030;-78
2022/08/13 01:32:46;;;;;;;2.75;2.50;;;;;;;;;;4960878;28;20086;-77
2022/08/13 01:35:12;;;;;;;5.78;2.50;;;;;;;;;;4967640;28;20030;-76
2022/08/13 01:37:39;;;;;;;5.18;3.10;;;;;;;;;;4983437;28;20397;-77
2022/08/13 01:40:06;;;;;;;4.75;2.70;;;;;;;;;;4970534;28;20082;-77
2022/08/13 01:42:43;;;;;;;3.50;3.15;;;;;;;;;;4973126;28;20522;-77
2022/08/13 01:45:10;;;;;;;2.78;2.50;;;;;;;;;;4969258;28;20440;-77
2022/08/13 01:50:30;;;;;;;3.40;2.80;;;;;;;;;;4969088;28;20401;-77
2022/08/13 01:53:01;;;;;;;4.20;2.85;;;;;;;;;;4977929;28;20014;-77
2022/08/13 01:55:38;;;;;;;3.75;2.75;;;;;;;;;;4971872;28;20028;-78
2022/08/13 01:58:06;;;;;;;3.92;2.70;;;;;;;;;;4968361;28;20011;-77
2022/08/13 02:00:32;;;;;;;5.63;3.00;;;;;;;;;;4964552;28;20335;-77
2022/08/13 02:03:01;;;;;;;5.43;3.40;;;;;;;;;;4966554;28;20037;-77
2022/08/13 02:05:27;;;;;;;4.22;2.60;;;;;;;;;;4968364;28;20043;-77
2022/08/13 02:07:53;;;;;;;4.38;2.83;;;;;;;;;;4965341;28;20046;-77
2022/08/13 02:10:23;;;;;;;5.88;3.30;;;;;;;;;;4961847;28;20114;-77
2022/08/13 02:12:50;;;;;;;3.85;2.90;;;;;;;;;;4966040;28;20019;-78
2022/08/13 02:15:16;;;;;;;3.78;3.13;;;;;;;;;;4967279;28;20035;-77
2022/08/13 02:17:45;;;;;;;4.63;3.20;;;;;;;;;;4978816;28;20050;-77
2022/08/13 02:20:17;;;;;;;5.15;3.28;;;;;;;;;;4967131;28;20046;-77
2022/08/13 02:22:44;;;;;;;4.88;3.03;;;;;;;;;;4969693;28;20723;-77
2022/08/13 02:25:12;;;;;;;3.80;2.63;;;;;;;;;;4963207;28;20486;-77
2022/08/13 02:27:39;;;;;;;4.30;2.97;;;;;;;;;;4968635;28;20026;-76
2022/08/13 02:30:07;;;;;;;4.15;2.80;;;;;;;;;;4973467;28;20125;-77
2022/08/13 02:32:35;;;;;;;4.25;3.25;;;;;;;;;;4967445;28;20015;-77
2022/08/13 02:35:01;;;;;;;3.70;2.90;;;;;;;;;;4961032;28;20016;-78
2022/08/13 02:37:28;;;;;;;4.38;3.13;;;;;;;;;;4979751;28;20022;-77
2022/08/13 02:39:55;;;;;;;4.53;2.95;;;;;;;;;;4965631;28;20011;-76
2022/08/13 02:42:22;;;;;;;4.70;3.10;;;;;;;;;;4965686;28;20041;-77
2022/08/13 02:44:49;;;;;;;4.50;2.92;;;;;;;;;;4970425;28;20027;-77
2022/08/13 02:47:16;;;;;;;3.03;2.72;;;;;;;;;;4964766;28;20059;-77
2022/08/13 02:49:43;;;;;;;4.93;3.30;;;;;;;;;;4962135;28;20023;-77
2022/08/13 02:52:09;;;;;;;5.07;3.30;;;;;;;;;;4971950;28;20026;-77
2022/08/13 02:54:39;;;;;;;4.78;3.45;;;;;;;;;;4968375;28;20091;-77
2022/08/13 02:57:06;;;;;;;6.38;3.33;;;;;;;;;;4969184;28;20062;-77
2022/08/13 02:59:32;;;;;;;4.00;3.00;;;;;;;;;;4968679;28;20096;-77
2022/08/13 03:02:00;;;;;;;5.35;2.75;;;;;;;;;;4981423;28;20592;-77
2022/08/13 03:04:26;;;;;;;4.22;3.10;;;;;;;;;;4982024;28;20045;-77
2022/08/13 03:06:52;;;;;;;4.38;3.20;;;;;;;;;;4967557;28;20230;-77
2022/08/13 03:09:22;;;;;;;6.03;3.20;;;;;;;;;;4975538;28;20054;-77
2022/08/13 03:11:49;;;;;;;4.68;3.00;;;;;;;;;;4970453;28;20504;-77
2022/08/13 03:14:16;;;;;;;4.85;3.10;;;;;;;;;;4966722;28;20485;-77
2022/08/13 03:16:42;;;;;;;6.10;3.42;;;;;;;;;;4977212;28;20110;-76
2022/08/13 03:19:08;;;;;;;6.05;3.30;;;;;;;;;;4970111;28;20038;-77
2022/08/13 03:21:36;;;;;;;5.78;4.22;;;;;;;;;;4967585;28;20038;-78
2022/08/13 03:24:06;;;;;;;5.97;3.15;;;;;;;;;;4969830;28;20031;-78
2022/08/13 03:26:32;;;;;;;4.43;3.10;;;;;;;;;;4972029;28;20088;-79
2022/08/13 03:28:59;;;;;;;4.38;3.30;;;;;;;;;;4972532;28;20034;-76
2022/08/13 03:31:27;;;;;;;4.82;3.13;;;;;;;;;;4971808;28;20119;-77
2022/08/13 03:33:54;;;;;;;5.22;3.55;;;;;;;;;;4971336;28;20098;-77
2022/08/13 03:36:21;;;;;;;4.90;2.80;;;;;;;;;;4977671;28;20026;-77
2022/08/13 03:38:47;;;;;;;4.15;3.20;;;;;;;;;;4969224;28;20083;-77
2022/08/13 03:41:14;;;;;;;4.45;3.20;;;;;;;;;;4972749;28;20061;-77
2022/08/13 03:43:45;;;;;;;6.07;3.38;;;;;;;;;;4973039;28;20027;-77
2022/08/13 03:46:13;;;;;;;3.80;2.90;;;;;;;;;;4970650;28;20045;-77
2022/08/13 03:48:39;;;;;;;4.45;3.25;;;;;;;;;;4978774;28;20026;-77
2022/08/13 03:51:06;;;;;;;4.78;3.17;;;;;;;;;;4969882;28;20497;-77
2022/08/13 03:53:33;;;;;;;3.55;2.85;;;;;;;;;;4973669;28;20049;-77
2022/08/13 03:56:00;;;;;;;4.50;3.72;;;;;;;;;;4968433;28;20023;-77
2022/08/13 03:58:28;;;;;;;3.97;2.90;;;;;;;;;;4971051;28;20507;-77
2022/08/13 04:00:55;;;;;;;4.15;3.08;;;;;;;;;;4964174;28;20037;-77
2022/08/13 04:03:22;;;;;;;4.18;3.35;;;;;;;;;;4965934;28;20035;-77
2022/08/13 04:05:50;;;;;;;4.85;3.10;;;;;;;;;;4974279;28;20047;-77
2022/08/13 04:08:16;;;;;;;3.60;3.03;;;;;;;;;;4971139;28;20110;-77
2022/08/13 04:10:43;;;;;;;5.80;3.25;;;;;;;;;;4968826;28;20549;-76
2022/08/13 04:13:16;;;;;;;5.57;3.67;;;;;;;;;;4977624;28;20082;-76
2022/08/13 04:15:45;;;;;;;3.40;3.00;;;;;;;;;;4968812;28;20046;-76
2022/08/13 04:18:15;;;;;;;4.63;3.15;;;;;;;;;;4977122;28;20077;-77
2022/08/13 04:20:42;;;;;;;6.22;3.83;;;;;;;;;;4969146;28;20078;-76
2022/08/13 04:23:16;;;;;;;4.30;3.05;;;;;;;;;;4973498;28;20114;-77
2022/08/13 04:25:46;;;;;;;9.52;4.43;;;;;;;;;;4985501;28;20030;-77
2022/08/13 04:28:12;;;;;;;5.55;3.30;;;;;;;;;;4971608;28;20069;-76
2022/08/13 04:30:40;;;;;;;4.40;3.50;;;;;;;;;;4976740;28;20117;-77
2022/08/13 04:33:09;;;;;;;6.10;3.30;;;;;;;;;;4970134;28;20036;-77
2022/08/13 04:35:35;;;;;;;3.72;3.17;;;;;;;;;;4974714;28;20033;-76
2022/08/13 04:38:02;;;;;;;5.20;3.72;;;;;;;;;;4974954;28;20022;-76
2022/08/13 04:40:28;;;;;;;13.32;3.60;;;;;;;;;;4968900;28;20030;-76
2022/08/13 04:42:55;;;;;;;7.03;3.53;;;;;;;;;;4971694;28;20023;-77
2022/08/13 04:45:22;;;;;;;4.65;3.30;;;;;;;;;;4971613;28;20043;-77
2022/08/13 04:47:48;;;;;;;4.47;3.13;;;;;;;;;;4966212;28;20058;-77
2022/08/13 04:50:14;;;;;;;4.40;3.00;;;;;;;;;;4975955;28;20022;-77
2022/08/13 04:52:40;;;;;;;6.15;3.08;;;;;;;;;;4968233;28;20038;-77
2022/08/13 04:55:10;;;;;;;5.00;3.42;;;;;;;;;;4967292;28;20544;-77
2022/08/13 04:57:37;;;;;;;4.65;3.08;;;;;;;;;;4973539;28;20023;-78
2022/08/13 05:00:06;;;;;;;4.38;2.97;;;;;;;;;;4970426;28;20019;-77
2022/08/13 05:02:32;;;;;;;5.65;3.42;;;;;;;;;;4969260;28;20385;-76
2022/08/13 05:04:58;;;;;;;3.40;3.10;;;;;;;;;;4963307;28;20030;-76
2022/08/13 05:07:26;;;;;;;3.83;3.42;;;;;;;;;;4967843;28;20117;-77
2022/08/13 05:09:52;;;;;;;3.80;2.92;;;;;;;;;;4978371;28;20370;-76
2022/08/13 05:12:19;;;;;;;5.20;3.10;;;;;;;;;;4975481;28;20031;-77
2022/08/13 05:14:46;;;;;;;3.75;3.25;;;;;;;;;;4975895;28;20418;-76
2022/08/13 05:17:12;;;;;;;4.43;3.42;;;;;;;;;;4969640;28;20053;-77
2022/08/13 05:19:38;;;;;;;5.82;3.10;;;;;;;;;;4970330;28;20065;-77
2022/08/13 05:22:04;;;;;;;3.92;2.92;;;;;;;;;;4969411;28;20022;-77
2022/08/13 05:24:30;;;;;;;3.80;3.15;;;;;;;;;;4970206;28;20027;-76
2022/08/13 05:26:58;;;;;;;3.78;2.95;;;;;;;;;;4965251;28;20019;-77
2022/08/13 05:29:24;;;;;;;4.05;2.92;;;;;;;;;;4969597;28;20066;-77
2022/08/13 05:31:53;;;;;;;5.55;3.72;;;;;;;;;;4967058;28;20232;-77
2022/08/13 05:34:19;;;;;;;4.60;3.50;;;;;;;;;;4969108;28;20504;-76
2022/08/13 05:36:46;;;;;;;3.35;2.90;;;;;;;;;;4967144;28;20027;-77
2022/08/13 05:39:13;;;;;;;5.25;3.38;;;;;;;;;;4974180;28;20026;-77
2022/08/13 05:41:41;;;;;;;5.40;3.15;;;;;;;;;;4967660;28;20164;-76
2022/08/13 05:44:09;;;;;;;5.72;3.15;;;;;;;;;;4968378;28;20504;-76
2022/08/13 05:46:36;;;;;;;4.20;2.88;;;;;;;;;;4966643;28;20027;-77
2022/08/13 05:49:03;;;;;;;4.53;3.38;;;;;;;;;;4968412;28;20205;-77
2022/08/13 05:51:31;;;;;;;4.75;3.35;;;;;;;;;;4968526;28;20034;-77
2022/08/13 05:53:59;;;;;;;4.43;3.10;;;;;;;;;;4965234;28;20486;-77
2022/08/13 05:56:26;;;;;;;4.63;3.25;;;;;;;;;;4969762;28;20106;-76
2022/08/13 05:58:53;;;;;;;4.95;3.33;;;;;;;;;;4967507;28;20038;-77
2022/08/13 06:04:11;;;;;;;4.97;3.55;;;;;;;;;;4965535;28;20115;-76
2022/08/13 06:06:38;;;;;;;5.65;3.28;;;;;;;;;;4967149;28;20054;-77
2022/08/13 06:09:05;;;;;;;3.50;3.10;;;;;;;;;;4970000;28;20270;-77
2022/08/13 06:11:31;;;;;;;4.97;3.35;;;;;;;;;;4966173;28;20019;-77
2022/08/13 06:13:57;;;;;;;4.40;3.45;;;;;;;;;;4973728;28;20080;-77
2022/08/13 06:16:28;;;;;;;6.32;3.05;;;;;;;;;;4966961;28;20180;-76
2022/08/13 06:18:57;;;;;;;5.68;3.72;;;;;;;;;;4968913;28;20034;-77
2022/08/13 06:21:24;;;;;;;4.03;3.20;;;;;;;;;;4964154;28;20026;-77
2022/08/13 06:23:50;;;;;;;3.78;2.97;;;;;;;;;;4972556;28;20026;-76
2022/08/13 06:26:19;;;;;;;8.02;3.22;;;;;;;;;;4969086;28;20092;-76
2022/08/13 06:28:46;;;;;;;4.70;2.95;;;;;;;;;;4966775;28;20378;-76
2022/08/13 06:31:14;;;;;;;4.65;3.35;;;;;;;;;;4965521;28;20034;-76
2022/08/13 06:33:40;;;;;;;5.28;3.20;;;;;;;;;;4963138;28;20119;-77
2022/08/13 06:36:10;;;;;;;6.78;3.28;;;;;;;;;;4964459;28;20039;-77
2022/08/13 06:38:36;;;;;;;7.38;3.67;;;;;;;;;;4969705;28;20503;-78
2022/08/13 06:41:04;;;;;;;4.13;3.15;;;;;;;;;;4966900;28;20023;-77
2022/08/13 06:43:31;;;;;;;5.80;3.47;;;;;;;;;;4968032;28;20468;-77
2022/08/13 06:45:59;;;;;;;3.85;3.30;;;;;;;;;;4968768;28;20066;-77
2022/08/13 06:48:26;;;;;;;3.97;3.30;;;;;;;;;;4966371;28;20030;-77
2022/08/13 06:50:53;;;;;;;4.55;3.50;;;;;;;;;;4966676;28;20421;-77
2022/08/13 06:53:19;;;;;;;8.23;3.70;;;;;;;;;;4977731;28;20018;-76
2022/08/13 06:55:48;;;;;;;4.10;3.60;;;;;;;;;;4976553;28;20065;-77
2022/08/13 06:58:14;;;;;;;6.05;3.70;;;;;;;;;;4968100;28;20033;-77
2022/08/13 07:00:41;;;;;;;4.82;3.20;;;;;;;;;;4969503;28;20023;-77
2022/08/13 07:03:09;;;;;;;6.35;3.70;;;;;;;;;;4970535;28;20081;-77
2022/08/13 07:05:41;;;;;;;4.22;3.35;;;;;;;;;;4974881;28;20046;-77
2022/08/13 07:08:11;;;;;;;4.50;3.55;;;;;;;;;;4974327;28;20512;-76
2022/08/13 07:10:46;;;;;;;4.20;3.22;;;;;;;;;;4972980;28;20086;-77
2022/08/13 07:13:12;;;;;;;4.10;3.30;;;;;;;;;;4982254;28;20305;-77
2022/08/13 07:15:40;;;;;;;5.68;3.17;;;;;;;;;;4971844;28;20037;-77
2022/08/13 07:18:07;;;;;;;5.15;3.30;;;;;;;;;;4976487;28;20489;-77
2022/08/13 07:20:33;;;;;;;3.90;3.25;;;;;;;;;;4976902;28;20568;-77
2022/08/13 07:23:00;;;;;;;7.40;3.70;;;;;;;;;;4975627;28;20049;-77
2022/08/13 07:25:30;;;;;;;6.35;3.70;;;;;;;;;;4974698;28;20031;-77
2022/08/13 07:28:00;;;;;;;7.80;4.05;;;;;;;;;;4985743;28;20061;-77
2022/08/13 07:30:27;;;;;;;6.25;4.25;;;;;;;;;;4976829;28;20404;-77
2022/08/13 07:32:53;;;;;;;6.85;3.90;;;;;;;;;;4972463;28;20023;-77
2022/08/13 07:35:20;;;;;;;7.47;3.95;;;;;;;;;;4973259;28;20027;-77
2022/08/13 07:37:46;;;;;;;5.63;4.10;;;;;;;;;;4971634;28;20046;-79
2022/08/13 07:40:13;;;;;;;4.85;3.45;;;;;;;;;;4970733;28;20375;-77
2022/08/13 07:42:40;;;;;;;4.93;3.75;;;;;;;;;;4968564;28;20090;-77
2022/08/13 07:45:10;;;;;;;8.95;4.25;;;;;;;;;;4970455;28;20454;-78
2022/08/13 07:47:38;;;;;;;10.43;4.70;;;;;;;;;;4964833;28;20037;-78
2022/08/13 07:50:05;;;;;;;7.20;4.13;;;;;;;;;;4966973;28;20319;-77
2022/08/13 07:52:32;;;;;;;5.82;3.97;;;;;;;;;;4969044;28;20118;-77
2022/08/13 07:55:00;;;;;;;7.07;4.18;;;;;;;;;;4974172;28;20031;-78
2022/08/13 07:57:29;;;;;;;6.68;3.60;;;;;;;;;;4982038;28;20481;-78
2022/08/13 07:59:55;;;;;;;6.28;3.97;;;;;;;;;;4973881;28;20035;-77
2022/08/13 08:02:25;;;;;;;6.13;4.03;;;;;;;;;;4974615;28;20155;-77
2022/08/13 08:04:51;;;;;;;7.85;3.80;;;;;;;;;;4970433;28;20026;-77
2022/08/13 08:07:18;;;;;;;4.60;4.13;;;;;;;;;;4975590;28;20051;-79
2022/08/13 08:09:44;;;;;;;6.60;4.30;;;;;;;;;;4970040;28;20477;-77
2022/08/13 08:14:55;;;;;;;4.32;3.90;;;;;;;;;;4969295;28;20521;-77
2022/08/13 08:17:26;;;;;;;6.32;3.80;;;;;;;;;;4972192;28;20158;-77
2022/08/13 08:19:53;;;;;;;4.32;3.92;;;;;;;;;;4968535;28;20030;-78
2022/08/13 08:22:21;;;;;;;5.50;3.85;;;;;;;;;;4968159;28;20027;-78
2022/08/13 08:24:50;;;;;;;11.98;3.95;;;;;;;;;;4973312;28;20022;-78
2022/08/13 08:27:17;;;;;;;6.72;4.10;;;;;;;;;;4971829;28;20557;-78
2022/08/13 08:29:44;;;;;;;6.97;4.22;;;;;;;;;;4971074;28;20070;-79
2022/08/13 08:32:12;;;;;;;4.47;3.60;;;;;;;;;;4984893;28;20069;-77
2022/08/13 08:34:44;;;;;;;8.05;4.63;;;;;;;;;;4966004;28;20380;-78
2022/08/13 08:42:35;;;;;;;10.00;3.83;;;;;;;;;;4978338;28;20019;-78
2022/08/13 08:42:48;;;;;;;5.22;4.00;;;;;;;;;;4971883;28;20065;-77
2022/08/13 08:45:18;;;;;;;7.63;4.25;;;;;;;;;;4974532;28;20394;-77
2022/08/13 08:47:45;;;;;;;6.95;3.65;;;;;;;;;;4971873;28;20552;-77
2022/08/13 08:50:11;;;;;;;5.07;3.53;;;;;;;;;;4972566;28;20430;-78
2022/08/13 08:55:24;;;;;;;;;;;;;;;;;;4968577;28;20038;-78
2022/08/13 08:57:52;;;;;;;5.70;3.42;;;;;;;;;;4986943;28;20316;-78
2022/08/13 09:00:19;;;;;;;5.85;4.18;;;;;;;;;;4977591;28;20033;-78
2022/08/13 09:02:48;;;;;;;8.80;4.03;;;;;;;;;;4972994;28;20474;-78
2022/08/13 09:05:16;;;;;;;8.65;3.22;;;;;;;;;;4970591;28;20098;-78
2022/08/13 09:07:45;;;;;;;4.97;3.80;;;;;;;;;;4969993;28;20105;-80
2022/08/13 09:10:12;;;;;;;6.25;3.58;;;;;;;;;;4972063;28;20190;-78
2022/08/13 09:12:40;;;;;;;3.63;3.33;;;;;;;;;;4968400;28;20022;-80
2022/08/13 09:15:07;;;;;;;8.73;3.38;;;;;;;;;;4979795;28;20627;-77
2022/08/13 09:17:33;;;;;;;7.53;3.50;;;;;;;;;;4964959;28;20030;-79
2022/08/13 09:20:00;;;;;;;4.50;3.58;;;;;;;;;;4974101;28;20026;-79
2022/08/13 09:22:26;;;;;;;4.10;3.10;;;;;;;;;;4967434;28;20546;-78
2022/08/13 09:24:53;;;;;;;7.15;3.72;;;;;;;;;;4980663;28;20031;-78
2022/08/13 09:27:19;;;;;;;4.03;3.38;;;;;;;;;;4965871;28;20066;-78
2022/08/13 09:29:48;;;;;;;8.80;3.50;;;;;;;;;;4973748;28;20049;-77
2022/08/13 09:32:17;;;;;;;6.68;3.90;;;;;;;;;;4984055;28;20469;-78
2022/08/13 09:34:46;;;;;;;5.03;3.40;;;;;;;;;;4966503;28;20089;-78
2022/08/13 09:37:12;;;;;;;4.28;3.50;;;;;;;;;;4965371;28;20065;-77
2022/08/13 09:40:01;;;;;;;7.18;3.40;;;;;;;;;;4963633;28;20031;-78
2022/08/13 09:42:29;;;;;;;6.30;3.50;;;;;;;;;;4970931;28;20041;-76
2022/08/13 09:44:56;;;;;;;6.32;4.68;;;;;;;;;;4977645;28;20377;-77
2022/08/13 09:47:23;;;;;;;3.92;3.42;;;;;;;;;;4967675;28;20069;-78
2022/08/13 09:49:50;;;;;;;6.90;3.40;;;;;;;;;;4970334;28;20082;-78
2022/08/13 09:52:16;;;;;;;4.97;3.38;;;;;;;;;;4970239;28;21276;-77
2022/08/13 09:54:43;;;;;;;4.93;3.20;;;;;;;;;;4967452;28;20030;-78
2022/08/13 09:57:09;;;;;;;8.52;3.42;;;;;;;;;;4969822;28;20099;-78
2022/08/13 09:59:36;;;;;;;6.57;3.60;;;;;;;;;;4965849;28;20034;-79
2022/08/13 10:02:09;;;;;;;5.85;3.58;;;;;;;;;;4968139;28;20027;-78
2022/08/13 10:04:36;;;;;;;5.97;3.25;;;;;;;;;;4973222;28;20504;-78
2022/08/13 10:07:04;;;;;;;5.35;3.25;;;;;;;;;;4967792;28;20047;-78
2022/08/13 10:09:33;;;;;;;6.65;3.80;;;;;;;;;;4970725;28;20260;-77
2022/08/13 10:12:01;;;;;;;7.53;3.58;;;;;;;;;;4966204;28;20474;-79
2022/08/13 10:14:27;;;;;;;5.65;3.00;;;;;;;;;;4967556;28;20030;-76
2022/08/13 10:16:53;;;;;;;4.53;3.03;;;;;;;;;;4967048;28;20557;-78
2022/08/13 10:19:20;;;;;;;5.55;4.45;;;;;;;;;;4970497;28;20086;-78
2022/08/13 10:21:46;;;;;;;6.57;3.53;;;;;;;;;;4967852;28;20038;-76
2022/08/13 10:24:13;;;;;;;4.60;3.65;;;;;;;;;;4969428;28;20018;-77
2022/08/13 10:26:40;;;;;;;5.57;3.40;;;;;;;;;;4964066;28;20382;-76
2022/08/13 10:29:09;;;;;;;5.93;3.75;;;;;;;;;;4970594;28;20023;-77
2022/08/13 10:31:35;;;;;;;6.55;3.65;;;;;;;;;;4982313;28;20023;-77
2022/08/13 10:34:03;;;;;;;7.03;3.97;;;;;;;;;;4968999;28;20023;-77
2022/08/13 10:36:30;;;;;;;7.45;3.85;;;;;;;;;;4972971;28;20033;-78
2022/08/13 10:38:57;;;;;;;5.78;3.15;;;;;;;;;;4966022;28;20528;-77
2022/08/13 10:41:24;;;;;;;8.88;3.88;;;;;;;;;;4966392;28;20025;-77
2022/08/13 10:43:50;;;;;;;7.85;3.55;;;;;;;;;;4971148;28;20027;-77
2022/08/13 10:46:17;;;;;;;7.43;3.90;;;;;;;;;;4970119;28;20585;-78
2022/08/13 10:48:44;;;;;;;5.45;3.13;;;;;;;;;;4967003;28;20041;-77
2022/08/13 10:51:11;;;;;;;4.28;3.67;;;;;;;;;;4965796;28;20027;-77
2022/08/13 10:53:58;;;;;;;5.75;3.67;;;;;;;;;;4973553;28;20109;-78
2022/08/13 10:56:27;;;;;;;3.67;3.25;;;;;;;;;;4964897;28;20022;-77
2022/08/13 10:58:53;;;;;;;4.82;4.03;;;;;;;;;;4967801;28;20018;-77
2022/08/13 11:01:23;;;;;;;9.57;3.83;;;;;;;;;;4975731;28;20405;-77
2022/08/13 11:03:49;;;;;;;5.18;3.40;;;;;;;;;;4963724;28;20031;-77
2022/08/13 11:06:15;;;;;;;6.97;4.38;;;;;;;;;;4969023;28;20549;-77
2022/08/13 11:08:41;;;;;;;5.40;3.63;;;;;;;;;;4967322;28;20433;-78
2022/08/13 11:11:08;;;;;;;3.92;3.38;;;;;;;;;;4977791;28;20113;-77
2022/08/13 11:13:36;;;;;;;5.03;3.40;;;;;;;;;;4969806;28;20023;-78
2022/08/13 11:16:06;;;;;;;5.70;3.50;;;;;;;;;;4967149;28;20026;-78
2022/08/13 11:18:32;;;;;;;4.30;3.75;;;;;;;;;;4976088;28;20065;-78
2022/08/13 11:21:07;;;;;;;10.10;4.35;;;;;;;;;;4969084;28;20027;-77
2022/08/13 11:23:34;;;;;;;6.68;4.10;;;;;;;;;;4965180;28;20410;-77
2022/08/13 11:26:00;;;;;;;4.68;3.50;;;;;;;;;;4967537;28;20565;-77
2022/08/13 11:28:27;;;;;;;5.13;3.85;;;;;;;;;;4971171;28;20038;-78
2022/08/13 11:30:54;;;;;;;4.95;3.15;;;;;;;;;;4970358;28;20031;-79
2022/08/13 11:33:21;;;;;;;7.60;4.60;;;;;;;;;;4967205;28;20110;-79
2022/08/13 11:35:47;;;;;;;6.65;3.60;;;;;;;;;;4968529;28;20803;-79
2022/08/13 11:38:14;;;;;;;6.05;3.58;;;;;;;;;;4968638;28;20033;-79
2022/08/13 11:40:45;;;;;;;6.55;3.42;;;;;;;;;;4968923;28;20066;-79
2022/08/13 11:43:11;;;;;;;6.90;3.97;;;;;;;;;;4975380;28;20054;-79
2022/08/13 11:45:37;;;;;;;5.38;3.75;;;;;;;;;;4971784;28;20033;-78
2022/08/13 11:48:05;;;;;;;9.32;3.90;;;;;;;;;;4971196;28;20041;-80
2022/08/13 11:50:32;;;;;;;7.88;3.40;;;;;;;;;;4977629;28;20030;-80
2022/08/13 11:52:58;;;;;;;5.60;3.60;;;;;;;;;;4973643;28;20049;-79
2022/08/13 11:55:24;;;;;;;7.80;4.50;;;;;;;;;;4973736;28;20062;-83
2022/08/13 11:57:59;;;;;;;6.40;3.65;;;;;;;;;;4972322;28;20092;-81
2022/08/13 12:00:26;;;;;;;7.70;3.40;;;;;;;;;;4971598;28;20033;-83
2022/08/13 12:02:52;;;;;;;6.32;3.30;;;;;;;;;;4975055;28;20469;-80
2022/08/13 12:05:19;;;;;;;6.32;3.42;;;;;;;;;;4970899;28;20567;-80
2022/08/13 12:07:46;;;;;;;7.07;3.58;;;;;;;;;;4972999;28;20116;-79
2022/08/13 12:10:13;;;;;;;7.13;3.95;;;;;;;;;;4974359;28;20038;-81
2022/08/13 12:12:39;;;;;;;8.10;4.10;;;;;;;;;;4975565;28;20031;-80
2022/08/13 12:15:06;;;;;;;5.97;3.72;;;;;;;;;;4978051;28;20034;-80
2022/08/13 12:17:32;;;;;;;7.70;3.60;;;;;;;;;;4973289;28;20505;-79
2022/08/13 12:19:58;;;;;;;6.28;3.55;;;;;;;;;;4974137;28;20050;-81
2022/08/13 12:22:24;;;;;;;7.47;3.75;;;;;;;;;;4975636;28;20504;-80
2022/08/13 12:24:52;;;;;;;6.32;3.70;;;;;;;;;;4973077;28;20035;-81
2022/08/13 12:27:18;;;;;;;3.80;3.13;;;;;;;;;;4972686;28;20027;-77
2022/08/13 12:29:44;;;;;;;5.78;3.35;;;;;;;;;;4975899;28;20034;-78
2022/08/13 12:32:10;;;;;;;7.85;3.90;;;;;;;;;;4977192;28;20038;-80
2022/08/13 12:34:37;;;;;;;5.65;3.78;;;;;;;;;;4985323;28;20090;-80
2022/08/13 12:37:03;;;;;;;6.43;3.50;;;;;;;;;;4974262;28;20034;-80
2022/08/13 12:39:30;;;;;;;5.07;3.63;;;;;;;;;;4969701;28;21343;-80
2022/08/13 12:41:56;;;;;;;6.22;4.00;;;;;;;;;;4974715;28;20031;-78
2022/08/13 12:44:22;;;;;;;5.28;3.50;;;;;;;;;;4971316;28;20037;-81
2022/08/13 12:46:48;;;;;;;9.98;3.78;;;;;;;;;;4979476;28;20034;-80
2022/08/13 12:49:14;;;;;;;5.47;4.00;;;;;;;;;;4973830;28;20031;-82
2022/08/13 12:51:41;;;;;;;4.63;3.70;;;;;;;;;;4973757;28;20110;-80
2022/08/13 12:54:07;;;;;;;6.38;3.38;;;;;;;;;;4988203;28;20646;-80
2022/08/13 12:56:33;;;;;;;4.50;3.40;;;;;;;;;;4974304;28;20027;-80
2022/08/13 12:58:59;;;;;;;5.82;3.50;;;;;;;;;;4975521;28;20552;-79
2022/08/13 13:01:26;;;;;;;4.78;3.55;;;;;;;;;;4973814;28;20086;-78
2022/08/13 13:03:52;;;;;;;5.10;3.65;;;;;;;;;;4968793;28;20030;-79
2022/08/13 13:06:18;;;;;;;6.40;3.65;;;;;;;;;;4975424;28;20058;-80
2022/08/13 13:08:44;;;;;;;6.28;3.38;;;;;;;;;;4978972;28;20145;-80
2022/08/13 13:11:11;;;;;;;6.32;3.33;;;;;;;;;;4978015;28;20042;-80
2022/08/13 13:13:37;;;;;;;5.97;3.33;;;;;;;;;;4974552;28;20394;-79
2022/08/13 13:16:05;;;;;;;6.43;3.40;;;;;;;;;;4973188;28;20536;-82
2022/08/13 13:18:32;;;;;;;6.95;3.42;;;;;;;;;;4993726;28;20041;-80
2022/08/13 13:20:59;;;;;;;4.07;3.40;;;;;;;;;;4977578;28;20086;-80
2022/08/13 13:23:26;;;;;;;5.10;3.80;;;;;;;;;;4976423;28;20402;-82
2022/08/13 13:25:52;;;;;;;9.13;3.40;;;;;;;;;;4974868;28;20027;-79
2022/08/13 13:28:20;;;;;;;4.43;3.10;;;;;;;;;;4975257;28;20117;-81
2022/08/13 13:30:46;;;;;;;9.85;3.88;;;;;;;;;;4976367;28;20505;-82
2022/08/13 13:33:14;;;;;;;8.48;3.88;;;;;;;;;;4973620;28;20045;-81
2022/08/13 13:35:42;;;;;;;6.97;3.60;;;;;;;;;;4967291;28;20501;-77
2022/08/13 13:38:09;;;;;;;4.32;3.20;;;;;;;;;;4963577;28;20026;-78
2022/08/13 13:40:38;;;;;;;7.50;3.30;;;;;;;;;;4967933;28;20089;-77
2022/08/13 13:43:04;;;;;;;4.80;3.30;;;;;;;;;;4963388;28;20043;-78
2022/08/13 13:45:31;;;;;;;5.43;3.50;;;;;;;;;;4963530;28;20112;-78
2022/08/13 13:47:59;;;;;;;6.03;3.30;;;;;;;;;;4964875;28;20031;-77
2022/08/13 13:50:26;;;;;;;5.93;3.35;;;;;;;;;;4963041;28;20044;-78
2022/08/13 13:52:52;;;;;;;5.20;3.65;;;;;;;;;;4963059;28;20081;-78
2022/08/13 13:55:18;;;;;;;6.00;3.65;;;;;;;;;;4963552;28;20568;-79
2022/08/13 13:57:45;;;;;;;9.07;4.18;;;;;;;;;;4963736;28;20114;-78
2022/08/13 14:00:12;;;;;;;4.35;3.40;;;;;;;;;;4962837;28;20023;-78
2022/08/13 14:02:51;;;;;;;4.25;3.40;;;;;;;;;;4963874;28;20018;-78
2022/08/13 14:05:18;;;;;;;6.60;3.60;;;;;;;;;;4964366;28;20053;-78
2022/08/13 14:07:51;;;;;;;5.47;3.40;;;;;;;;;;4962854;28;20035;-78
2022/08/13 14:10:17;;;;;;;;;;;;;;;;;;4962735;28;20038;-79
2022/08/13 14:12:43;;;;;;;6.30;3.20;;;;;;;;;;4979717;28;19910;-78
2022/08/13 14:15:09;;;;;;;8.25;3.20;;;;;;;;;;4962952;28;20026;-77
2022/08/13 14:17:37;;;;;;;8.77;3.63;;;;;;;;;;4964803;28;20105;-78
2022/08/13 14:20:04;;;;;;;6.15;3.50;;;;;;;;;;4962206;28;20446;-78
2022/08/13 14:22:30;;;;;;;7.80;3.75;;;;;;;;;;4964340;28;20030;-78
2022/08/13 14:24:57;;;;;;;5.88;3.33;;;;;;;;;;4963613;28;20061;-79
2022/08/13 14:27:23;;;;;;;4.95;3.35;;;;;;;;;;4966428;28;20030;-79
2022/08/13 14:29:49;;;;;;;6.85;3.50;;;;;;;;;;4964272;28;20035;-78
2022/08/13 14:32:17;;;;;;;3.47;3.15;;;;;;;;;;4966043;28;20577;-78
2022/08/13 14:34:44;;;;;;;6.38;3.40;;;;;;;;;;4964336;28;20018;-80
2022/08/13 14:37:10;;;;;;;5.03;3.20;;;;;;;;;;4966168;28;20034;-78
2022/08/13 14:39:37;;;;;;;5.95;3.35;;;;;;;;;;4963806;28;20030;-79
2022/08/13 14:42:04;;;;;;;4.85;3.40;;;;;;;;;;4965174;28;20049;-78
2022/08/13 14:44:30;;;;;;;4.47;3.50;;;;;;;;;;4961575;28;20365;-77
2022/08/13 14:46:56;;;;;;;5.53;4.18;;;;;;;;;;4965863;28;20022;-78
2022/08/13 14:49:22;;;;;;;5.53;3.47;;;;;;;;;;4960624;28;20157;-78
2022/08/13 14:51:49;;;;;;;5.93;3.92;;;;;;;;;;4965084;28;20094;-79
2022/08/13 14:54:15;;;;;;;8.27;3.30;;;;;;;;;;4968545;28;20030;-79
2022/08/13 14:56:41;;;;;;;5.70;3.65;;;;;;;;;;4966405;28;20023;-79
2022/08/13 14:59:07;;;;;;;5.82;3.20;;;;;;;;;;4964237;28;20054;-80
2022/08/13 15:01:33;;;;;;;3.95;3.55;;;;;;;;;;4962427;28;20027;-80